»·PEaware :: SAS234 KNYL-KBFL

SAS234 :: KNYL-KBFL

FLIGHT INFORMATION

Flight Status: Arrived
Operator:
SAS
More flights by this operator :: More flights under this callsign
Pilot: Christian L. (6360)
Aircraft: BOEING 737-800
(B738)
More flights by this aircraft type
Origin: KNYL Yuma MCAS/Yuma Intl
United States
Destination: KBFL Meadows
United States
More flights between these airports :: More routes between these airports
Route: +BZA BLH J65 PMD FASTO1
File this flight plan on PilotEdge
Remarks: Simulating IFR weather
Altitude:
(Current/Filed)
340ft
Speed:
(Current/Filed)
1kts
Departed: 18-Feb-16 12:09 PM
Arrived: 18-Feb-16 01:16 PM
Distance/Time
Traveled:
278nm/1:06
Distance/Time
To Go:
Arrived

Flight Plot

Page will automatically refresh every two minutes.

Flight plan parsing failed; only flown route is shown


Map Options




Map Legend


Flown Route
Filed Route
Departure Airport
Arrival Airport
Navaid (VOR, NDB)
Fix

Horizontal Profiles

Position Reports

Time Latitude Longitude Heading Altitude Ground
Speed
18-Feb-16 11:43 32.660135 -114.610020 180 223ft 0kts
18-Feb-16 11:44 32.660135 -114.610020 180 223ft 0kts
18-Feb-16 11:45 32.660135 -114.610020 180 223ft 0kts
18-Feb-16 11:46 32.660135 -114.610020 180 223ft 0kts
18-Feb-16 11:47 32.660135 -114.610020 180 223ft 0kts
18-Feb-16 11:48 32.660135 -114.610020 180 223ft 0kts
18-Feb-16 11:49 32.660135 -114.610020 180 223ft 0kts
18-Feb-16 11:50 32.660135 -114.610020 180 223ft 0kts
18-Feb-16 11:51 32.660135 -114.610020 180 223ft 0kts
18-Feb-16 11:52 32.660135 -114.610020 180 223ft 0kts
18-Feb-16 11:53 32.660424 -114.610120 136 223ft 2kts
18-Feb-16 11:54 32.660542 -114.610450 90 223ft 0kts
18-Feb-16 11:55 32.660542 -114.610450 90 223ft 0kts
18-Feb-16 11:56 32.659869 -114.609347 177 223ft 12kts
18-Feb-16 11:57 32.659944 -114.606174 73 223ft 20kts
18-Feb-16 11:58 32.660030 -114.604878 90 223ft 0kts
18-Feb-16 11:59 32.659819 -114.604033 155 223ft 0kts
18-Feb-16 12:00 32.659810 -114.604028 155 223ft 0kts
18-Feb-16 12:01 32.659800 -114.604023 155 223ft 0kts
18-Feb-16 12:02 32.659724 -114.603980 155 223ft 0kts
18-Feb-16 12:03 32.655759 -114.607627 224 223ft 83kts
18-Feb-16 12:04 32.625870 -114.645552 252 1767ft 186kts
18-Feb-16 12:05 32.664902 -114.680735 15 3407ft 252kts
18-Feb-16 12:06 32.729806 -114.634898 31 5019ft 299kts
18-Feb-16 12:07 32.804992 -114.609959 351 5398ft 279kts
18-Feb-16 12:08 32.883798 -114.624508 348 8065ft 294kts
18-Feb-16 12:09 32.966770 -114.640425 346 10497ft 310kts
18-Feb-16 12:10 33.059043 -114.658082 344 11778ft 365kts
18-Feb-16 12:11 33.166537 -114.678697 344 13089ft 407kts
18-Feb-16 12:12 33.279447 -114.700365 343 15171ft 416kts
18-Feb-16 12:13 33.394822 -114.722454 343 17100ft 424kts
18-Feb-16 12:14 33.512324 -114.745093 343 18797ft 433kts
18-Feb-16 12:15 33.605381 -114.815315 292 20232ft 396kts
18-Feb-16 12:16 33.653438 -114.936293 286 21630ft 400kts
18-Feb-16 12:17 33.694496 -115.061066 286 22868ft 407kts
18-Feb-16 12:18 33.737022 -115.189721 286 23616ft 413kts
18-Feb-16 12:19 33.779040 -115.318807 285 24664ft 420kts
18-Feb-16 12:20 33.817884 -115.438877 285 25873ft 418kts
18-Feb-16 12:21 33.838081 -115.501392 284 25987ft 420kts
18-Feb-16 12:22 33.879942 -115.631760 284 25992ft 416kts
18-Feb-16 12:23 33.921546 -115.762108 284 25995ft 416kts
18-Feb-16 12:24 33.963081 -115.892034 285 26001ft 416kts
18-Feb-16 12:25 34.004824 -116.022474 284 26013ft 416kts
18-Feb-16 12:26 34.046220 -116.152881 284 26027ft 416kts
18-Feb-16 12:27 34.087396 -116.283315 284 26033ft 415kts
18-Feb-16 12:28 34.128275 -116.413435 284 26039ft 413kts
18-Feb-16 12:29 34.168651 -116.542522 284 26057ft 410kts
18-Feb-16 12:30 34.208680 -116.671068 283 26091ft 408kts
18-Feb-16 12:31 34.248589 -116.799689 283 26118ft 405kts
18-Feb-16 12:32 34.288001 -116.927261 283 26127ft 403kts
18-Feb-16 12:33 34.327130 -117.054373 283 26115ft 400kts
18-Feb-16 12:34 34.365580 -117.180234 283 26100ft 397kts
18-Feb-16 12:35 34.403692 -117.305340 283 26089ft 395kts
18-Feb-16 12:36 34.441534 -117.430051 282 26091ft 392kts
18-Feb-16 12:37 34.479074 -117.554273 282 26090ft 391kts
18-Feb-16 12:38 34.516337 -117.678134 282 26094ft 389kts
18-Feb-16 12:39 34.553330 -117.800741 282 25600ft 382kts
18-Feb-16 12:40 34.588534 -117.919051 282 24142ft 362kts
18-Feb-16 12:41 34.623998 -118.036066 288 24085ft 380kts
18-Feb-16 12:42 34.691093 -118.141239 304 24089ft 399kts
18-Feb-16 12:43 34.766676 -118.239927 304 24089ft 397kts
18-Feb-16 12:44 34.842036 -118.337964 304 24106ft 395kts
18-Feb-16 12:45 34.897124 -118.410000 303 24000ft 392kts
18-Feb-16 12:46 34.897124 -118.410000 303 24000ft 392kts
18-Feb-16 12:47 34.897124 -118.410000 303 24000ft 392kts
18-Feb-16 12:48 34.897124 -118.410000 303 24000ft 392kts
18-Feb-16 12:49 34.933007 -118.457137 303 23085ft 381kts
18-Feb-16 12:50 35.003816 -118.550341 303 21085ft 366kts
18-Feb-16 12:51 35.076857 -118.636169 307 19024ft 360kts
18-Feb-16 12:52 35.148877 -118.716814 307 17043ft 348kts
18-Feb-16 12:53 35.215430 -118.800431 287 14863ft 328kts
18-Feb-16 12:54 35.241902 -118.905796 283 12714ft 323kts
18-Feb-16 12:55 35.265957 -119.012283 283 10594ft 325kts
18-Feb-16 12:56 35.288551 -119.121165 282 8487ft 333kts
18-Feb-16 12:57 35.265419 -119.220784 206 6287ft 345kts
18-Feb-16 12:58 35.189179 -119.174928 108 5054ft 342kts
18-Feb-16 12:59 35.167606 -119.061071 103 4998ft 344kts
18-Feb-16 13:00 35.146577 -118.947043 103 4991ft 335kts
18-Feb-16 13:01 35.135337 -118.849327 62 4872ft 249kts
18-Feb-16 13:02 35.184956 -118.819687 341 4924ft 189kts
18-Feb-16 13:03 35.233345 -118.845476 332 5012ft 189kts
18-Feb-16 13:04 35.279944 -118.873768 319 4157ft 182kts
18-Feb-16 13:05 35.316604 -118.914860 313 2573ft 175kts
18-Feb-16 13:06 35.346855 -118.951214 313 2476ft 155kts
18-Feb-16 13:07 35.377569 -118.988241 313 1981ft 150kts
18-Feb-16 13:08 35.407446 -119.024291 314 1199ft 159kts
18-Feb-16 13:09 35.437057 -119.060051 315 515ft 131kts
18-Feb-16 13:10 35.443882 -119.066964 41 514ft 0kts

Navigation Log

Ident Type
Flight plan parsing failed, navigation log unavailable